sensor_id;sensor_type;location;lat;lon;timestamp;pressure;altitude;pressure_sealevel;temperature;humidity
71361;BME280;59166;48.908;1.870;2023-05-09T00:00:13;100558.78;;;15.14;91.47
71361;BME280;59166;48.908;1.870;2023-05-09T00:05:14;100550.44;;;15.01;91.82
71361;BME280;59166;48.908;1.870;2023-05-09T00:10:16;100548.53;;;15.01;91.83
71361;BME280;59166;48.908;1.870;2023-05-09T00:15:17;100540.91;;;15.03;91.24
71361;BME280;59166;48.908;1.870;2023-05-09T00:20:18;100539.88;;;14.99;91.75
71361;BME280;59166;48.908;1.870;2023-05-09T00:25:20;100538.47;;;15.02;91.99
71361;BME280;59166;48.908;1.870;2023-05-09T00:30:21;100526.06;;;14.85;92.40
71361;BME280;59166;48.908;1.870;2023-05-09T00:35:22;100512.47;;;14.85;92.65
71361;BME280;59166;48.908;1.870;2023-05-09T00:40:25;100511.34;;;14.86;93.92
71361;BME280;59166;48.908;1.870;2023-05-09T00:45:25;100501.34;;;14.82;94.25
71361;BME280;59166;48.908;1.870;2023-05-09T00:50:26;100494.59;;;14.74;94.04
71361;BME280;59166;48.908;1.870;2023-05-09T00:55:28;100482.38;;;14.72;94.73
71361;BME280;59166;48.908;1.870;2023-05-09T01:00:29;100473.41;;;14.71;95.63
71361;BME280;59166;48.908;1.870;2023-05-09T01:05:39;100469.34;;;14.69;96.01
71361;BME280;59166;48.908;1.870;2023-05-09T01:10:52;100460.88;;;14.70;96.46
71361;BME280;59166;48.908;1.870;2023-05-09T01:16:00;100452.22;;;14.68;97.15
71361;BME280;59166;48.908;1.870;2023-05-09T01:21:07;100445.97;;;14.68;97.70
71361;BME280;59166;48.908;1.870;2023-05-09T01:26:13;100447.91;;;14.62;97.79
71361;BME280;59166;48.908;1.870;2023-05-09T01:31:20;100436.50;;;14.60;98.45
71361;BME280;59166;48.908;1.870;2023-05-09T01:36:22;100429.97;;;14.61;99.34
71361;BME280;59166;48.908;1.870;2023-05-09T01:41:28;100422.09;;;14.60;99.58
71361;BME280;59166;48.908;1.870;2023-05-09T01:46:32;100418.88;;;14.53;99.72
71361;BME280;59166;48.908;1.870;2023-05-09T01:51:33;100414.81;;;14.55;99.94
71361;BME280;59166;48.908;1.870;2023-05-09T01:56:36;100403.44;;;14.48;100.00
71361;BME280;59166;48.908;1.870;2023-05-09T02:01:41;100413.00;;;14.40;100.00
71361;BME280;59166;48.908;1.870;2023-05-09T02:06:43;100408.63;;;14.45;100.00
71361;BME280;59166;48.908;1.870;2023-05-09T02:11:45;100414.66;;;14.36;100.00
71361;BME280;59166;48.908;1.870;2023-05-09T02:16:47;100409.47;;;14.40;100.00
71361;BME280;59166;48.908;1.870;2023-05-09T02:21:48;100417.09;;;14.38;100.00
71361;BME280;59166;48.908;1.870;2023-05-09T02:26:49;100417.94;;;14.33;100.00
71361;BME280;59166;48.908;1.870;2023-05-09T02:31:52;100409.28;;;14.26;100.00
71361;BME280;59166;48.908;1.870;2023-05-09T02:36:53;100406.63;;;14.21;100.00
71361;BME280;59166;48.908;1.870;2023-05-09T02:41:54;100395.75;;;14.16;100.00
71361;BME280;59166;48.908;1.870;2023-05-09T02:46:57;100392.22;;;14.16;100.00
71361;BME280;59166;48.908;1.870;2023-05-09T02:51:58;100389.81;;;14.14;100.00
71361;BME280;59166;48.908;1.870;2023-05-09T02:56:59;100389.25;;;14.12;100.00
71361;BME280;59166;48.908;1.870;2023-05-09T03:02:01;100389.56;;;14.06;100.00
71361;BME280;59166;48.908;1.870;2023-05-09T03:07:02;100387.50;;;13.93;100.00
71361;BME280;59166;48.908;1.870;2023-05-09T03:12:03;100369.59;;;13.86;100.00
71361;BME280;59166;48.908;1.870;2023-05-09T03:17:06;100372.63;;;13.80;100.00
71361;BME280;59166;48.908;1.870;2023-05-09T03:22:06;100366.91;;;13.81;100.00
71361;BME280;59166;48.908;1.870;2023-05-09T03:27:07;100358.50;;;13.83;100.00
71361;BME280;59166;48.908;1.870;2023-05-09T03:32:10;100349.31;;;13.74;100.00
71361;BME280;59166;48.908;1.870;2023-05-09T03:37:10;100347.16;;;13.71;100.00
71361;BME280;59166;48.908;1.870;2023-05-09T03:42:11;100339.03;;;13.71;100.00
71361;BME280;59166;48.908;1.870;2023-05-09T03:47:14;100339.03;;;13.71;100.00
71361;BME280;59166;48.908;1.870;2023-05-09T03:52:14;100337.09;;;13.66;100.00
71361;BME280;59166;48.908;1.870;2023-05-09T03:57:15;100322.19;;;13.69;100.00
71361;BME280;59166;48.908;1.870;2023-05-09T04:02:18;100315.13;;;13.63;100.00
71361;BME280;59166;48.908;1.870;2023-05-09T04:07:19;100318.97;;;13.57;100.00
71361;BME280;59166;48.908;1.870;2023-05-09T04:12:19;100302.13;;;13.55;100.00
71361;BME280;59166;48.908;1.870;2023-05-09T04:17:22;100304.31;;;13.53;100.00
71361;BME280;59166;48.908;1.870;2023-05-09T04:22:23;100297.53;;;13.55;100.00
71361;BME280;59166;48.908;1.870;2023-05-09T04:27:23;100284.50;;;13.57;100.00
71361;BME280;59166;48.908;1.870;2023-05-09T04:32:26;100283.19;;;13.50;100.00
71361;BME280;59166;48.908;1.870;2023-05-09T04:37:27;100277.47;;;13.51;100.00
71361;BME280;59166;48.908;1.870;2023-05-09T04:42:27;100269.63;;;13.45;100.00
71361;BME280;59166;48.908;1.870;2023-05-09T04:47:30;100269.09;;;13.43;100.00
71361;BME280;59166;48.908;1.870;2023-05-09T04:52:33;100270.25;;;13.31;100.00
71361;BME280;59166;48.908;1.870;2023-05-09T04:57:34;100266.75;;;13.26;100.00
71361;BME280;59166;48.908;1.870;2023-05-09T05:02:36;100252.13;;;13.22;100.00
71361;BME280;59166;48.908;1.870;2023-05-09T05:07:37;100249.41;;;13.27;100.00
71361;BME280;59166;48.908;1.870;2023-05-09T05:12:38;100247.47;;;13.27;100.00
71361;BME280;59166;48.908;1.870;2023-05-09T05:17:40;100236.34;;;13.29;100.00
71361;BME280;59166;48.908;1.870;2023-05-09T05:22:41;100239.88;;;13.29;100.00
71361;BME280;59166;48.908;1.870;2023-05-09T05:27:42;100239.31;;;13.27;100.00
71361;BME280;59166;48.908;1.870;2023-05-09T05:32:44;100234.47;;;13.24;100.00
71361;BME280;59166;48.908;1.870;2023-05-09T05:37:45;100232.56;;;13.25;100.00
71361;BME280;59166;48.908;1.870;2023-05-09T05:42:46;100222.78;;;13.29;100.00
71361;BME280;59166;48.908;1.870;2023-05-09T05:47:48;100219.00;;;13.30;100.00
71361;BME280;59166;48.908;1.870;2023-05-09T05:52:49;100213.25;;;13.36;100.00
71361;BME280;59166;48.908;1.870;2023-05-09T05:57:50;100213.28;;;13.31;100.00
71361;BME280;59166;48.908;1.870;2023-05-09T06:02:52;100207.28;;;13.34;100.00
71361;BME280;59166;48.908;1.870;2023-05-09T06:07:53;100203.53;;;13.30;100.00
71361;BME280;59166;48.908;1.870;2023-05-09T06:12:54;100197.03;;;13.26;100.00
71361;BME280;59166;48.908;1.870;2023-05-09T06:17:56;100195.41;;;13.25;100.00
71361;BME280;59166;48.908;1.870;2023-05-09T06:22:57;100192.94;;;13.29;100.00
71361;BME280;59166;48.908;1.870;2023-05-09T06:27:57;100192.13;;;13.28;100.00
71361;BME280;59166;48.908;1.870;2023-05-09T06:33:00;100186.44;;;13.25;100.00
71361;BME280;59166;48.908;1.870;2023-05-09T06:38:00;100177.25;;;13.21;100.00
71361;BME280;59166;48.908;1.870;2023-05-09T06:43:01;100167.81;;;13.13;100.00
71361;BME280;59166;48.908;1.870;2023-05-09T06:48:04;100161.31;;;13.09;100.00
71361;BME280;59166;48.908;1.870;2023-05-09T06:53:05;100164.59;;;13.06;100.00
71361;BME280;59166;48.908;1.870;2023-05-09T06:58:06;100152.38;;;13.04;100.00
71361;BME280;59166;48.908;1.870;2023-05-09T07:03:08;100146.69;;;13.05;100.00
71361;BME280;59166;48.908;1.870;2023-05-09T07:08:09;100136.63;;;13.11;100.00
71361;BME280;59166;48.908;1.870;2023-05-09T07:13:10;100125.00;;;13.10;100.00
71361;BME280;59166;48.908;1.870;2023-05-09T07:18:12;100127.13;;;13.13;100.00
71361;BME280;59166;48.908;1.870;2023-05-09T07:23:13;100109.47;;;13.16;100.00
71361;BME280;59166;48.908;1.870;2023-05-09T07:28:14;100111.91;;;13.17;100.00
71361;BME280;59166;48.908;1.870;2023-05-09T07:33:16;100104.81;;;13.21;100.00
71361;BME280;59166;48.908;1.870;2023-05-09T07:38:17;100093.97;;;13.21;100.00
71361;BME280;59166;48.908;1.870;2023-05-09T07:43:17;100096.66;;;13.26;100.00
71361;BME280;59166;48.908;1.870;2023-05-09T07:48:19;100090.38;;;13.31;100.00
71361;BME280;59166;48.908;1.870;2023-05-09T07:53:20;100087.13;;;13.29;100.00
71361;BME280;59166;48.908;1.870;2023-05-09T07:58:21;100084.19;;;13.25;100.00
71361;BME280;59166;48.908;1.870;2023-05-09T08:03:23;100092.31;;;13.25;100.00
71361;BME280;59166;48.908;1.870;2023-05-09T08:08:24;100083.66;;;13.23;100.00
71361;BME280;59166;48.908;1.870;2023-05-09T08:13:25;100078.31;;;13.13;100.00
71361;BME280;59166;48.908;1.870;2023-05-09T08:18:27;100088.94;;;13.05;100.00
71361;BME280;59166;48.908;1.870;2023-05-09T08:23:28;100077.28;;;13.04;100.00
71361;BME280;59166;48.908;1.870;2023-05-09T08:28:29;100075.19;;;12.91;100.00
71361;BME280;59166;48.908;1.870;2023-05-09T08:33:32;100072.16;;;12.98;100.00
71361;BME280;59166;48.908;1.870;2023-05-09T08:38:32;100063.78;;;12.99;100.00
71361;BME280;59166;48.908;1.870;2023-05-09T08:43:33;100062.13;;;13.03;100.00
71361;BME280;59166;48.908;1.870;2023-05-09T08:48:37;100054.31;;;12.97;100.00
71361;BME280;59166;48.908;1.870;2023-05-09T08:53:38;100055.63;;;12.99;100.00
71361;BME280;59166;48.908;1.870;2023-05-09T08:58:39;100056.44;;;13.00;100.00
71361;BME280;59166;48.908;1.870;2023-05-09T09:03:42;100041.00;;;13.00;100.00
71361;BME280;59166;48.908;1.870;2023-05-09T09:08:44;100048.59;;;12.98;100.00
71361;BME280;59166;48.908;1.870;2023-05-09T09:13:46;100045.31;;;13.01;100.00
71361;BME280;59166;48.908;1.870;2023-05-09T09:18:51;100051.84;;;13.00;100.00
71361;BME280;59166;48.908;1.870;2023-05-09T09:23:54;100050.72;;;13.01;100.00
71361;BME280;59166;48.908;1.870;2023-05-09T09:28:55;100057.84;;;12.92;100.00
71361;BME280;59166;48.908;1.870;2023-05-09T09:34:00;100048.94;;;12.86;100.00
71361;BME280;59166;48.908;1.870;2023-05-09T09:39:03;100051.41;;;12.83;100.00
71361;BME280;59166;48.908;1.870;2023-05-09T09:44:07;100048.19;;;12.76;100.00
71361;BME280;59166;48.908;1.870;2023-05-09T09:49:13;100040.59;;;12.78;100.00
71361;BME280;59166;48.908;1.870;2023-05-09T09:54:14;100038.91;;;12.87;100.00
71361;BME280;59166;48.908;1.870;2023-05-09T09:59:16;100033.69;;;12.96;100.00
71361;BME280;59166;48.908;1.870;2023-05-09T10:04:19;100029.00;;;13.06;100.00
71361;BME280;59166;48.908;1.870;2023-05-09T10:09:20;100025.81;;;12.99;100.00
71361;BME280;59166;48.908;1.870;2023-05-09T10:14:23;100018.72;;;13.03;100.00
71361;BME280;59166;48.908;1.870;2023-05-09T10:19:26;100016.28;;;13.07;100.00
71361;BME280;59166;48.908;1.870;2023-05-09T10:24:33;100011.34;;;13.14;100.00
71361;BME280;59166;48.908;1.870;2023-05-09T10:29:36;100012.03;;;13.24;100.00
71361;BME280;59166;48.908;1.870;2023-05-09T10:34:41;100004.38;;;13.31;100.00
71361;BME280;59166;48.908;1.870;2023-05-09T10:39:43;100003.78;;;13.34;100.00
71361;BME280;59166;48.908;1.870;2023-05-09T10:44:45;99999.72;;;13.37;100.00
71361;BME280;59166;48.908;1.870;2023-05-09T10:49:51;99998.34;;;13.39;100.00
71361;BME280;59166;48.908;1.870;2023-05-09T10:54:59;99992.84;;;13.45;100.00
71361;BME280;59166;48.908;1.870;2023-05-09T11:00:00;99994.13;;;13.52;100.00
71361;BME280;59166;48.908;1.870;2023-05-09T11:05:18;99986.84;;;13.48;100.00
71361;BME280;59166;48.908;1.870;2023-05-09T11:10:19;99987.28;;;13.60;100.00
71361;BME280;59166;48.908;1.870;2023-05-09T11:15:20;99985.31;;;13.65;100.00
71361;BME280;59166;48.908;1.870;2023-05-09T11:20:27;99976.03;;;13.71;100.00
71361;BME280;59166;48.908;1.870;2023-05-09T11:25:28;99977.03;;;13.80;100.00
71361;BME280;59166;48.908;1.870;2023-05-09T11:30:35;99975.00;;;13.91;100.00
71361;BME280;59166;48.908;1.870;2023-05-09T11:35:42;99970.38;;;13.91;100.00
71361;BME280;59166;48.908;1.870;2023-05-09T11:40:43;99970.03;;;13.98;100.00
71361;BME280;59166;48.908;1.870;2023-05-09T11:45:45;99963.53;;;14.18;100.00
71361;BME280;59166;48.908;1.870;2023-05-09T11:50:47;99961.63;;;14.37;100.00
71361;BME280;59166;48.908;1.870;2023-05-09T11:55:55;99962.16;;;14.58;100.00
71361;BME280;59166;48.908;1.870;2023-05-09T12:00:56;99958.78;;;14.66;100.00
71361;BME280;59166;48.908;1.870;2023-05-09T12:05:57;99968.53;;;14.67;100.00
71361;BME280;59166;48.908;1.870;2023-05-09T12:11:08;99960.91;;;14.69;100.00
71361;BME280;59166;48.908;1.870;2023-05-09T12:16:09;99961.03;;;14.77;100.00
71361;BME280;59166;48.908;1.870;2023-05-09T12:21:10;99959.31;;;15.00;100.00
71361;BME280;59166;48.908;1.870;2023-05-09T12:26:12;99965.59;;;15.14;100.00
71361;BME280;59166;48.908;1.870;2023-05-09T12:31:13;99961.22;;;15.32;100.00
71361;BME280;59166;48.908;1.870;2023-05-09T12:36:15;99969.91;;;15.48;100.00
71361;BME280;59166;48.908;1.870;2023-05-09T12:41:18;99970.31;;;15.55;100.00
71361;BME280;59166;48.908;1.870;2023-05-09T12:46:19;99977.97;;;15.53;100.00
71361;BME280;59166;48.908;1.870;2023-05-09T12:51:20;99978.38;;;15.46;100.00
71361;BME280;59166;48.908;1.870;2023-05-09T12:56:23;99965.63;;;15.28;100.00
71361;BME280;59166;48.908;1.870;2023-05-09T13:01:27;99963.31;;;15.21;100.00
71361;BME280;59166;48.908;1.870;2023-05-09T13:06:28;99962.75;;;15.52;100.00
71361;BME280;59166;48.908;1.870;2023-05-09T13:11:30;99959.44;;;15.68;100.00
71361;BME280;59166;48.908;1.870;2023-05-09T13:16:31;99954.09;;;15.77;100.00
71361;BME280;59166;48.908;1.870;2023-05-09T13:21:32;99953.56;;;15.61;100.00
71361;BME280;59166;48.908;1.870;2023-05-09T13:26:34;99950.38;;;15.73;100.00
71361;BME280;59166;48.908;1.870;2023-05-09T13:31:35;99950.44;;;15.95;100.00
71361;BME280;59166;48.908;1.870;2023-05-09T13:36:36;99945.72;;;16.14;100.00
71361;BME280;59166;48.908;1.870;2023-05-09T13:41:38;99946.47;;;16.28;100.00
71361;BME280;59166;48.908;1.870;2023-05-09T13:46:39;99950.34;;;16.27;100.00
71361;BME280;59166;48.908;1.870;2023-05-09T13:51:39;99948.13;;;16.16;100.00
71361;BME280;59166;48.908;1.870;2023-05-09T13:56:42;99938.84;;;16.03;100.00
71361;BME280;59166;48.908;1.870;2023-05-09T14:01:43;99949.34;;;15.96;100.00
71361;BME280;59166;48.908;1.870;2023-05-09T14:06:44;99928.94;;;16.07;100.00
71361;BME280;59166;48.908;1.870;2023-05-09T14:11:46;99932.97;;;16.23;100.00
71361;BME280;59166;48.908;1.870;2023-05-09T14:16:47;99925.16;;;16.66;100.00
71361;BME280;59166;48.908;1.870;2023-05-09T14:21:48;99925.94;;;17.73;100.00
71361;BME280;59166;48.908;1.870;2023-05-09T14:26:51;99921.47;;;17.85;100.00
71361;BME280;59166;48.908;1.870;2023-05-09T14:31:51;99919.25;;;17.48;100.00
71361;BME280;59166;48.908;1.870;2023-05-09T14:36:52;99924.97;;;16.85;100.00
71361;BME280;59166;48.908;1.870;2023-05-09T14:41:55;99924.63;;;16.42;100.00
71361;BME280;59166;48.908;1.870;2023-05-09T14:46:56;99928.34;;;16.24;100.00
71361;BME280;59166;48.908;1.870;2023-05-09T14:51:57;99929.38;;;16.14;100.00
71361;BME280;59166;48.908;1.870;2023-05-09T14:56:59;99919.25;;;16.73;100.00
71361;BME280;59166;48.908;1.870;2023-05-09T15:02:00;99913.59;;;17.36;100.00
71361;BME280;59166;48.908;1.870;2023-05-09T15:07:01;99916.41;;;18.18;100.00
71361;BME280;59166;48.908;1.870;2023-05-09T15:12:03;99908.72;;;18.37;100.00
71361;BME280;59166;48.908;1.870;2023-05-09T15:17:04;99910.16;;;18.26;100.00
71361;BME280;59166;48.908;1.870;2023-05-09T15:22:05;99908.69;;;18.29;100.00
71361;BME280;59166;48.908;1.870;2023-05-09T15:27:07;99903.41;;;18.67;98.05
71361;BME280;59166;48.908;1.870;2023-05-09T15:32:08;99903.97;;;17.95;98.92
71361;BME280;59166;48.908;1.870;2023-05-09T15:37:09;99909.59;;;17.42;100.00
71361;BME280;59166;48.908;1.870;2023-05-09T15:42:12;99901.78;;;17.18;100.00
71361;BME280;59166;48.908;1.870;2023-05-09T15:47:12;99895.34;;;16.92;100.00
71361;BME280;59166;48.908;1.870;2023-05-09T15:52:13;99887.16;;;16.70;100.00
71361;BME280;59166;48.908;1.870;2023-05-09T15:57:16;99895.34;;;16.92;100.00
71361;BME280;59166;48.908;1.870;2023-05-09T16:02:17;99894.53;;;16.69;100.00
71361;BME280;59166;48.908;1.870;2023-05-09T16:07:17;99883.31;;;16.49;100.00
71361;BME280;59166;48.908;1.870;2023-05-09T16:12:20;99884.69;;;16.37;100.00
71361;BME280;59166;48.908;1.870;2023-05-09T16:17:20;99886.50;;;16.28;100.00
71361;BME280;59166;48.908;1.870;2023-05-09T16:22:21;99886.94;;;16.22;100.00
71361;BME280;59166;48.908;1.870;2023-05-09T16:27:24;99895.63;;;16.24;100.00
71361;BME280;59166;48.908;1.870;2023-05-09T16:32:24;99897.75;;;16.27;100.00
71361;BME280;59166;48.908;1.870;2023-05-09T16:37:25;99902.88;;;16.28;100.00
71361;BME280;59166;48.908;1.870;2023-05-09T16:42:27;99908.69;;;16.35;100.00
71361;BME280;59166;48.908;1.870;2023-05-09T16:47:28;99894.03;;;16.45;100.00
71361;BME280;59166;48.908;1.870;2023-05-09T16:52:29;99897.06;;;16.66;100.00
71361;BME280;59166;48.908;1.870;2023-05-09T16:57:31;99900.63;;;16.88;100.00
71361;BME280;59166;48.908;1.870;2023-05-09T17:02:32;99897.69;;;16.85;100.00
71361;BME280;59166;48.908;1.870;2023-05-09T17:07:33;99899.94;;;16.61;100.00
71361;BME280;59166;48.908;1.870;2023-05-09T17:12:35;99887.91;;;16.39;100.00
71361;BME280;59166;48.908;1.870;2023-05-09T17:17:36;99882.59;;;16.34;100.00
71361;BME280;59166;48.908;1.870;2023-05-09T17:22:37;99883.50;;;16.30;100.00
71361;BME280;59166;48.908;1.870;2023-05-09T17:27:39;99892.72;;;16.20;100.00
71361;BME280;59166;48.908;1.870;2023-05-09T17:32:40;99892.19;;;16.05;100.00
71361;BME280;59166;48.908;1.870;2023-05-09T17:37:41;99891.50;;;15.99;100.00
71361;BME280;59166;48.908;1.870;2023-05-09T17:42:43;99881.66;;;15.89;100.00
71361;BME280;59166;48.908;1.870;2023-05-09T17:47:44;99882.47;;;15.90;100.00
71361;BME280;59166;48.908;1.870;2023-05-09T17:52:45;99872.78;;;15.84;100.00
71361;BME280;59166;48.908;1.870;2023-05-09T17:57:47;99869.56;;;15.82;100.00
71361;BME280;59166;48.908;1.870;2023-05-09T18:02:48;99875.34;;;15.67;100.00
71361;BME280;59166;48.908;1.870;2023-05-09T18:07:49;99872.91;;;15.65;100.00
71361;BME280;59166;48.908;1.870;2023-05-09T18:12:51;99876.53;;;15.61;100.00
71361;BME280;59166;48.908;1.870;2023-05-09T18:17:52;99877.34;;;15.61;100.00
71361;BME280;59166;48.908;1.870;2023-05-09T18:22:53;99862.13;;;15.60;100.00
71361;BME280;59166;48.908;1.870;2023-05-09T18:27:55;99874.63;;;15.61;100.00
71361;BME280;59166;48.908;1.870;2023-05-09T18:32:56;99878.06;;;15.53;100.00
71361;BME280;59166;48.908;1.870;2023-05-09T18:37:56;99892.69;;;15.43;100.00
71361;BME280;59166;48.908;1.870;2023-05-09T18:42:59;99905.38;;;15.34;100.00
71361;BME280;59166;48.908;1.870;2023-05-09T18:48:00;99904.66;;;15.29;100.00
71361;BME280;59166;48.908;1.870;2023-05-09T18:53:00;99905.56;;;15.24;100.00
71361;BME280;59166;48.908;1.870;2023-05-09T18:58:03;99914.31;;;15.21;100.00
71361;BME280;59166;48.908;1.870;2023-05-09T19:03:04;99914.63;;;15.06;100.00
71361;BME280;59166;48.908;1.870;2023-05-09T19:08:05;99915.78;;;15.00;100.00
71361;BME280;59166;48.908;1.870;2023-05-09T19:13:07;99922.34;;;14.99;100.00
71361;BME280;59166;48.908;1.870;2023-05-09T19:18:08;99927.63;;;14.90;100.00
71361;BME280;59166;48.908;1.870;2023-05-09T19:23:09;99928.22;;;14.87;100.00
71361;BME280;59166;48.908;1.870;2023-05-09T19:28:12;99929.03;;;14.88;100.00
71361;BME280;59166;48.908;1.870;2023-05-09T19:33:13;99918.53;;;14.81;100.00
71361;BME280;59166;48.908;1.870;2023-05-09T19:38:14;99927.50;;;14.82;100.00
71361;BME280;59166;48.908;1.870;2023-05-09T19:43:17;99935.22;;;14.75;100.00
71361;BME280;59166;48.908;1.870;2023-05-09T19:48:18;99935.50;;;14.73;100.00
71361;BME280;59166;48.908;1.870;2023-05-09T19:53:19;99941.34;;;14.67;100.00
71361;BME280;59166;48.908;1.870;2023-05-09T19:58:22;99942.03;;;14.59;100.00
71361;BME280;59166;48.908;1.870;2023-05-09T20:03:23;99923.59;;;14.56;100.00
71361;BME280;59166;48.908;1.870;2023-05-09T20:08:24;99930.78;;;14.47;100.00
71361;BME280;59166;48.908;1.870;2023-05-09T20:13:26;99948.13;;;14.51;100.00
71361;BME280;59166;48.908;1.870;2023-05-09T20:18:27;99946.34;;;14.41;100.00
71361;BME280;59166;48.908;1.870;2023-05-09T20:23:28;99951.13;;;14.30;100.00
71361;BME280;59166;48.908;1.870;2023-05-09T20:28:31;99972.03;;;14.30;100.00
71361;BME280;59166;48.908;1.870;2023-05-09T20:33:32;99975.13;;;14.23;100.00
71361;BME280;59166;48.908;1.870;2023-05-09T20:38:32;99970.19;;;14.07;100.00
71361;BME280;59166;48.908;1.870;2023-05-09T20:43:35;99973.50;;;13.80;100.00
71361;BME280;59166;48.908;1.870;2023-05-09T20:48:35;99970.25;;;13.54;100.00
71361;BME280;59166;48.908;1.870;2023-05-09T20:53:36;99975.81;;;13.39;100.00
71361;BME280;59166;48.908;1.870;2023-05-09T20:58:38;99975.16;;;13.23;100.00
71361;BME280;59166;48.908;1.870;2023-05-09T21:03:39;99999.69;;;13.08;100.00
71361;BME280;59166;48.908;1.870;2023-05-09T21:08:40;99986.56;;;12.92;100.00
71361;BME280;59166;48.908;1.870;2023-05-09T21:13:42;99985.28;;;12.79;100.00
71361;BME280;59166;48.908;1.870;2023-05-09T21:18:43;99978.38;;;12.63;100.00
71361;BME280;59166;48.908;1.870;2023-05-09T21:23:44;99982.50;;;12.50;100.00
71361;BME280;59166;48.908;1.870;2023-05-09T21:28:46;99994.22;;;12.41;100.00
71361;BME280;59166;48.908;1.870;2023-05-09T21:33:47;99999.38;;;12.42;100.00
71361;BME280;59166;48.908;1.870;2023-05-09T21:38:48;100014.25;;;12.45;100.00
71361;BME280;59166;48.908;1.870;2023-05-09T21:43:50;100017.47;;;12.47;100.00
71361;BME280;59166;48.908;1.870;2023-05-09T21:48:51;100025.06;;;12.45;100.00
71361;BME280;59166;48.908;1.870;2023-05-09T21:53:52;100031.31;;;12.45;100.00
71361;BME280;59166;48.908;1.870;2023-05-09T21:58:55;100032.13;;;12.41;100.00
71361;BME280;59166;48.908;1.870;2023-05-09T22:03:55;100035.72;;;12.26;100.00
71361;BME280;59166;48.908;1.870;2023-05-09T22:08:56;100045.25;;;12.08;100.00
71361;BME280;59166;48.908;1.870;2023-05-09T22:13:58;100050.72;;;11.98;100.00
71361;BME280;59166;48.908;1.870;2023-05-09T22:18:59;100049.66;;;11.84;100.00
71361;BME280;59166;48.908;1.870;2023-05-09T22:24:00;100054.53;;;11.77;100.00
71361;BME280;59166;48.908;1.870;2023-05-09T22:29:02;100052.13;;;11.70;100.00
71361;BME280;59166;48.908;1.870;2023-05-09T22:34:03;100046.44;;;11.52;100.00
71361;BME280;59166;48.908;1.870;2023-05-09T22:39:04;100051.91;;;11.36;100.00
71361;BME280;59166;48.908;1.870;2023-05-09T22:44:07;100045.69;;;11.31;100.00
71361;BME280;59166;48.908;1.870;2023-05-09T22:49:07;100043.78;;;11.26;100.00
71361;BME280;59166;48.908;1.870;2023-05-09T22:54:08;100037.84;;;11.19;100.00
71361;BME280;59166;48.908;1.870;2023-05-09T22:59:11;100047.56;;;11.10;100.00
71361;BME280;59166;48.908;1.870;2023-05-09T23:04:11;100046.47;;;11.01;100.00
71361;BME280;59166;48.908;1.870;2023-05-09T23:09:12;100052.13;;;10.95;100.00
71361;BME280;59166;48.908;1.870;2023-05-09T23:14:14;100035.91;;;10.84;100.00
71361;BME280;59166;48.908;1.870;2023-05-09T23:19:15;100039.97;;;10.77;100.00
71361;BME280;59166;48.908;1.870;2023-05-09T23:24:16;100044.78;;;10.70;100.00
71361;BME280;59166;48.908;1.870;2023-05-09T23:29:18;100045.06;;;10.63;100.00
71361;BME280;59166;48.908;1.870;2023-05-09T23:34:19;100055.56;;;10.60;100.00
71361;BME280;59166;48.908;1.870;2023-05-09T23:39:20;100054.69;;;10.39;100.00
71361;BME280;59166;48.908;1.870;2023-05-09T23:44:22;100054.63;;;10.24;100.00
71361;BME280;59166;48.908;1.870;2023-05-09T23:49:23;100051.06;;;10.08;100.00
71361;BME280;59166;48.908;1.870;2023-05-09T23:54:24;100058.53;;;9.96;100.00
71361;BME280;59166;48.908;1.870;2023-05-09T23:59:26;100059.59;;;9.85;100.00
